Time;durP1;ratioP1;P1;durP2;ratioP2;P2;SDS_P1;SDS_P2;PMS_P1;PMS_P2;Temp;Humidity;BMP_temperature;BMP_pressure;BME280_temperature;BME280_humidity;BME280_pressure;Samples;Min_cycle;Max_cycle;Signal;HPM_P1;HPM_P2
2022/10/26 00:02:17;;;;;;;14.75;7.05;;;11.20;99.90;;;;;;4973539;28;20547;-84
2022/10/26 00:04:43;;;;;;;19.10;7.97;;;11.10;99.90;;;;;;4971163;28;20034;-84
2022/10/26 00:07:09;;;;;;;15.73;7.85;;;11.10;99.90;;;;;;5007125;28;20281;-84
2022/10/26 00:09:35;;;;;;;16.25;7.95;;;11.10;99.90;;;;;;4990802;28;20271;-84
2022/10/26 00:12:02;;;;;;;13.80;7.65;;;11.10;99.90;;;;;;4990007;28;20066;-84
2022/10/26 00:14:27;;;;;;;16.10;7.28;;;11.10;99.90;;;;;;4989645;28;20467;-84
2022/10/26 00:16:53;;;;;;;16.17;8.43;;;11.40;99.90;;;;;;4970661;28;20070;-83
2022/10/26 00:19:19;;;;;;;17.50;8.23;;;11.00;99.90;;;;;;4972661;28;20100;-84
2022/10/26 00:21:44;;;;;;;14.68;7.78;;;11.00;99.90;;;;;;4990251;28;20065;-84
2022/10/26 00:24:11;;;;;;;19.08;8.63;;;11.00;99.90;;;;;;4965985;28;20046;-84
2022/10/26 00:26:37;;;;;;;16.08;8.45;;;11.00;99.90;;;;;;4981955;28;21242;-84
2022/10/26 00:29:03;;;;;;;15.85;8.55;;;11.00;99.90;;;;;;4974534;28;20081;-84
2022/10/26 00:31:29;;;;;;;18.20;8.77;;;10.40;99.90;;;;;;4988795;28;20141;-84
2022/10/26 00:33:55;;;;;;;15.38;8.60;;;11.00;99.90;;;;;;4991376;28;20124;-84
2022/10/26 00:36:22;;;;;;;20.42;8.90;;;11.00;99.90;;;;;;5004148;28;20461;-84
2022/10/26 00:38:49;;;;;;;17.08;8.63;;;11.30;99.90;;;;;;4978855;28;20046;-84
2022/10/26 00:41:17;;;;;;;16.80;9.18;;;10.90;99.90;;;;;;4973730;28;20564;-84
2022/10/26 00:43:43;;;;;;;15.77;9.10;;;10.90;99.90;;;;;;4985041;28;20048;-84
2022/10/26 00:46:14;;;;;;;17.88;9.20;;;10.90;99.90;;;;;;4959661;28;20039;-84
2022/10/26 00:48:46;;;;;;;23.13;9.68;;;10.90;99.90;;;;;;5006680;28;20591;-84
2022/10/26 00:51:19;;;;;;;19.30;9.27;;;10.90;99.90;;;;;;5002776;28;20116;-84
2022/10/26 00:53:45;;;;;;;18.70;9.80;;;10.90;99.90;;;;;;4995764;28;20045;-84
2022/10/26 00:56:11;;;;;;;15.68;8.43;;;10.90;99.90;;;;;;4993247;28;20500;-84
2022/10/26 00:58:38;;;;;;;16.23;9.00;;;10.90;99.90;;;;;;4974673;28;20117;-84
2022/10/26 01:01:04;;;;;;;15.90;8.82;;;10.90;99.90;;;;;;5003371;28;20037;-84
2022/10/26 01:03:31;;;;;;;15.15;8.80;;;10.80;99.90;;;;;;4963756;28;20044;-84
2022/10/26 01:05:57;;;;;;;16.85;8.55;;;10.80;99.90;;;;;;4985457;28;20038;-83
2022/10/26 01:08:24;;;;;;;16.90;9.57;;;10.80;99.90;;;;;;4975824;28;20074;-84
2022/10/26 01:10:51;;;;;;;15.25;9.70;;;10.80;99.90;;;;;;4993245;28;20030;-84
2022/10/26 01:13:17;;;;;;;17.73;9.68;;;10.80;99.90;;;;;;4997580;28;20042;-84
2022/10/26 01:16:10;;;;;;;19.70;9.05;;;10.80;99.90;;;;;;5013332;28;20176;-84
2022/10/26 01:19:01;;;;;;;22.65;10.02;;;10.80;99.90;;;;;;4988694;28;20507;-84
2022/10/26 01:21:37;;;;;;;19.90;9.77;;;10.80;99.90;;;;;;4984966;28;20045;-84
2022/10/26 01:24:09;;;;;;;18.75;10.07;;;10.80;99.90;;;;;;5011575;28;20115;-84
2022/10/26 01:27:11;;;;;;;17.08;10.10;;;11.00;99.90;;;;;;5006493;28;20037;-84
2022/10/26 01:30:11;;;;;;;17.48;9.50;;;10.70;99.90;;;;;;5010383;28;20145;-84
2022/10/26 01:33:04;;;;;;;21.95;10.23;;;10.70;99.90;;;;;;5005450;28;20053;-84
2022/10/26 01:35:36;;;;;;;17.90;9.43;;;10.70;99.90;;;;;;4985082;28;20533;-84
2022/10/26 01:38:10;;;;;;;18.38;9.60;;;10.60;99.90;;;;;;5024699;28;20048;-84
2022/10/26 01:40:44;;;;;;;18.48;9.50;;;10.60;99.90;;;;;;4997992;28;20127;-84
2022/10/26 01:43:12;;;;;;;19.75;10.23;;;10.60;99.90;;;;;;4994263;28;20406;-84
2022/10/26 01:45:43;;;;;;;19.77;9.70;;;10.80;99.90;;;;;;4991329;28;20045;-84
2022/10/26 01:48:12;;;;;;;20.15;11.20;;;10.50;99.90;;;;;;4993213;28;20178;-84
2022/10/26 01:50:40;;;;;;;17.38;10.40;;;10.50;99.90;;;;;;5009322;28;20132;-84
2022/10/26 01:53:07;;;;;;;18.33;10.30;;;10.50;99.90;;;;;;5006512;28;20037;-84
2022/10/26 01:55:47;;;;;;;17.75;10.55;;;10.50;99.90;;;;;;4989132;28;20609;-84
2022/10/26 01:58:21;;;;;;;17.05;9.90;;;10.50;99.90;;;;;;5009743;28;20042;-85
2022/10/26 02:01:05;;;;;;;18.63;10.68;;;10.40;99.90;;;;;;5002144;28;20379;-84
2022/10/26 02:03:35;;;;;;;17.33;10.50;;;10.40;99.90;;;;;;4988732;28;20454;-84
2022/10/26 02:06:43;;;;;;;18.13;10.90;;;10.30;99.90;;;;;;4990100;28;20130;-84
2022/10/26 02:09:24;;;;;;;19.05;11.00;;;10.40;99.90;;;;;;4988242;28;20095;-84
2022/10/26 02:11:52;;;;;;;19.30;11.23;;;10.30;99.90;;;;;;5007169;28;20045;-84
2022/10/26 02:14:24;;;;;;;19.15;11.65;;;10.20;99.90;;;;;;4993523;28;20042;-84
2022/10/26 02:16:52;;;;;;;22.75;11.88;;;10.20;99.90;;;;;;4989180;28;20133;-84
2022/10/26 02:19:35;;;;;;;22.58;12.15;;;10.20;99.90;;;;;;4983502;28;20110;-84
2022/10/26 02:22:10;;;;;;;18.10;11.07;;;10.20;99.90;;;;;;4993318;28;20132;-84
2022/10/26 02:24:36;;;;;;;21.65;11.57;;;10.20;99.90;;;;;;5008483;28;20046;-84
2022/10/26 02:27:05;;;;;;;19.45;11.23;;;10.20;99.90;;;;;;4978653;28;20034;-84
2022/10/26 02:29:32;;;;;;;20.52;11.40;;;10.80;99.90;;;;;;5007155;28;20116;-84
2022/10/26 02:32:00;;;;;;;18.17;11.10;;;10.10;99.90;;;;;;4989518;28;20053;-84
2022/10/26 02:34:29;;;;;;;21.92;11.10;;;10.10;99.90;;;;;;4995997;28;20042;-84
2022/10/26 02:36:58;;;;;;;22.17;11.90;;;10.20;99.90;;;;;;4981380;28;20530;-84
2022/10/26 02:39:26;;;;;;;20.90;10.93;;;10.60;99.90;;;;;;4994869;28;20056;-84
2022/10/26 02:41:53;;;;;;;18.73;10.63;;;10.10;99.90;;;;;;5006326;28;20063;-84
2022/10/26 02:44:26;;;;;;;19.40;11.48;;;10.10;99.90;;;;;;4973889;28;20049;-84
2022/10/26 02:46:54;;;;;;;20.77;11.65;;;10.10;99.90;;;;;;5008376;28;20084;-84
2022/10/26 02:49:20;;;;;;;22.98;11.55;;;10.00;99.90;;;;;;4981794;28;20407;-84
2022/10/26 02:52:02;;;;;;;19.13;10.77;;;10.30;99.90;;;;;;4993511;28;20041;-84
2022/10/26 02:54:39;;;;;;;21.15;11.45;;;10.00;99.90;;;;;;4988308;28;20080;-84
2022/10/26 02:57:12;;;;;;;20.10;11.57;;;10.00;99.90;;;;;;4992239;28;20384;-84
2022/10/26 02:59:42;;;;;;;19.08;11.93;;;10.00;99.90;;;;;;4991897;28;20057;-84
2022/10/26 03:02:08;;;;;;;17.67;11.20;;;9.90;99.90;;;;;;5023771;28;20072;-84
2022/10/26 03:04:34;;;;;;;18.55;10.93;;;9.90;99.90;;;;;;4974760;28;20050;-84
2022/10/26 03:07:00;;;;;;;20.55;10.98;;;9.90;99.90;;;;;;5005414;28;20122;-84
2022/10/26 03:09:26;;;;;;;22.30;11.98;;;10.30;99.90;;;;;;4991391;28;20120;-84
2022/10/26 03:11:52;;;;;;;19.40;11.05;;;9.90;99.90;;;;;;5005139;28;20137;-84
2022/10/26 03:14:19;;;;;;;19.88;10.65;;;9.90;99.90;;;;;;4977517;28;20077;-84
2022/10/26 03:16:44;;;;;;;20.95;11.27;;;9.80;99.90;;;;;;4989746;28;20040;-84
2022/10/26 03:19:10;;;;;;;19.92;10.48;;;9.80;99.90;;;;;;4989854;28;20043;-84
2022/10/26 03:21:36;;;;;;;19.80;11.45;;;9.80;99.90;;;;;;4988705;28;20499;-84
2022/10/26 03:24:01;;;;;;;18.33;11.65;;;9.80;99.90;;;;;;4975126;28;20124;-84
2022/10/26 03:26:27;;;;;;;21.67;11.43;;;9.70;99.90;;;;;;4976303;28;20137;-84
2022/10/26 03:28:53;;;;;;;20.30;11.18;;;9.70;99.90;;;;;;4990842;28;20045;-84
2022/10/26 03:31:19;;;;;;;18.45;10.82;;;10.30;99.90;;;;;;4974101;28;20115;-84
2022/10/26 03:33:44;;;;;;;17.55;11.43;;;9.60;99.90;;;;;;4974771;28;20046;-84
2022/10/26 03:36:10;;;;;;;18.73;10.90;;;9.60;99.90;;;;;;4984606;28;20530;-84
2022/10/26 03:38:36;;;;;;;19.85;10.45;;;9.50;99.90;;;;;;4990741;28;20265;-84
2022/10/26 03:41:01;;;;;;;18.73;10.52;;;10.60;99.90;;;;;;4979776;28;20030;-84
2022/10/26 03:43:27;;;;;;;19.23;10.05;;;9.70;99.90;;;;;;4989946;28;20061;-84
2022/10/26 03:45:53;;;;;;;17.35;10.60;;;9.50;99.90;;;;;;4980782;28;20521;-84
2022/10/26 03:48:19;;;;;;;20.73;10.40;;;9.40;99.90;;;;;;4983677;28;20057;-83
2022/10/26 03:50:44;;;;;;;19.75;10.55;;;9.60;99.90;;;;;;4986701;28;20037;-83
2022/10/26 03:53:10;;;;;;;17.27;10.48;;;9.40;99.90;;;;;;4972429;28;20089;-84
2022/10/26 03:55:36;;;;;;;20.55;10.93;;;9.40;99.90;;;;;;4974638;28;20062;-84
2022/10/26 03:58:03;;;;;;;20.23;11.10;;;9.40;99.90;;;;;;4972926;28;20053;-84
2022/10/26 04:00:28;;;;;;;17.98;11.15;;;9.40;99.90;;;;;;4983852;28;20503;-84
2022/10/26 04:02:57;;;;;;;18.70;11.32;;;9.70;99.90;;;;;;4983180;28;20401;-84
2022/10/26 04:05:23;;;;;;;20.10;11.48;;;9.80;99.90;;;;;;4991022;28;20085;-84
2022/10/26 04:07:53;;;;;;;20.98;12.57;;;9.40;99.90;;;;;;4986939;28;20038;-84
2022/10/26 04:10:19;;;;;;;19.15;11.48;;;9.80;99.90;;;;;;5005756;28;20092;-84
2022/10/26 04:12:44;;;;;;;20.90;12.43;;;9.40;99.90;;;;;;4991882;28;20034;-84
2022/10/26 04:15:10;;;;;;;18.92;12.05;;;9.40;99.90;;;;;;4989548;28;20038;-84
2022/10/26 04:17:36;;;;;;;23.10;12.57;;;9.40;99.90;;;;;;4976865;28;20041;-84
2022/10/26 04:20:02;;;;;;;17.73;10.90;;;9.40;99.90;;;;;;4973237;28;20077;-84
2022/10/26 04:22:27;;;;;;;20.10;12.43;;;9.30;99.90;;;;;;5005387;28;20081;-84
2022/10/26 04:24:53;;;;;;;20.20;12.25;;;9.30;99.90;;;;;;4991228;28;20169;-84
2022/10/26 04:27:19;;;;;;;22.42;12.82;;;9.30;99.90;;;;;;5007237;28;20434;-84
2022/10/26 04:29:44;;;;;;;23.67;12.15;;;10.00;99.90;;;;;;4976431;28;20046;-84
2022/10/26 04:32:10;;;;;;;19.13;11.60;;;9.30;99.90;;;;;;4981343;28;20086;-84
2022/10/26 04:34:36;;;;;;;21.10;12.27;;;9.30;99.90;;;;;;4985292;28;20042;-84
2022/10/26 04:37:01;;;;;;;22.60;12.38;;;9.30;99.90;;;;;;4981410;28;20180;-84
2022/10/26 04:39:27;;;;;;;20.13;12.02;;;9.30;99.90;;;;;;4989847;28;20038;-84
2022/10/26 04:41:53;;;;;;;19.33;12.10;;;9.30;99.90;;;;;;4972071;28;20496;-84
2022/10/26 04:44:19;;;;;;;22.27;12.77;;;9.30;99.90;;;;;;4972163;28;20410;-84
2022/10/26 04:46:45;;;;;;;24.13;12.48;;;9.20;99.90;;;;;;4965366;28;20038;-84
2022/10/26 04:49:10;;;;;;;21.35;12.05;;;9.20;99.90;;;;;;4967370;28;20034;-84
2022/10/26 04:51:36;;;;;;;22.50;13.00;;;9.20;99.90;;;;;;4969921;28;20529;-84
2022/10/26 04:54:02;;;;;;;24.02;12.95;;;9.30;99.90;;;;;;4971678;28;20065;-84
2022/10/26 04:56:28;;;;;;;23.10;13.10;;;9.30;99.90;;;;;;4973491;28;20045;-83
2022/10/26 04:58:54;;;;;;;22.63;12.80;;;9.30;99.90;;;;;;4968005;28;20038;-84
2022/10/26 05:01:20;;;;;;;22.25;12.85;;;9.40;99.90;;;;;;4970088;28;20041;-84
2022/10/26 05:03:51;;;;;;;20.85;12.93;;;9.30;99.90;;;;;;5004725;28;20038;-84
2022/10/26 05:06:16;;;;;;;22.00;13.18;;;9.40;99.90;;;;;;4984032;28;20030;-83
2022/10/26 05:08:42;;;;;;;22.25;12.73;;;9.40;99.90;;;;;;4972349;28;20076;-84
2022/10/26 05:11:08;;;;;;;23.30;13.43;;;9.40;99.90;;;;;;4971002;28;20082;-83
2022/10/26 05:13:33;;;;;;;23.33;13.30;;;9.70;99.90;;;;;;4974987;28;20042;-84
2022/10/26 05:15:59;;;;;;;24.40;12.60;;;9.40;99.90;;;;;;4972113;28;20408;-84
2022/10/26 05:18:25;;;;;;;25.45;12.57;;;9.50;99.90;;;;;;4973667;28;20050;-83
2022/10/26 05:20:54;;;;;;;22.88;13.80;;;9.50;99.90;;;;;;4979280;28;20041;-84
2022/10/26 05:23:21;;;;;;;24.05;12.82;;;9.90;99.90;;;;;;4984323;28;20046;-83
2022/10/26 05:25:47;;;;;;;24.50;13.52;;;9.50;99.90;;;;;;5009537;28;20041;-84
2022/10/26 05:28:14;;;;;;;23.63;13.60;;;9.50;99.90;;;;;;4984534;28;20168;-84
2022/10/26 05:30:44;;;;;;;26.08;14.40;;;9.60;99.90;;;;;;5007046;28;20592;-83
2022/10/26 05:33:12;;;;;;;21.95;14.00;;;9.60;99.90;;;;;;4993757;28;20068;-84
2022/10/26 05:35:38;;;;;;;24.75;14.18;;;9.60;99.90;;;;;;4984045;28;21391;-84
2022/10/26 05:38:07;;;;;;;24.92;14.02;;;9.70;99.90;;;;;;4968213;28;21250;-84
2022/10/26 05:40:33;;;;;;;24.40;14.57;;;9.70;99.90;;;;;;4974251;28;20038;-84
2022/10/26 05:43:03;;;;;;;27.83;14.82;;;9.70;99.90;;;;;;4974930;28;20050;-84
2022/10/26 05:45:29;;;;;;;24.80;14.15;;;9.80;99.90;;;;;;4986751;28;20448;-83
2022/10/26 05:47:54;;;;;;;22.77;13.90;;;10.30;99.90;;;;;;4993694;28;20073;-83
2022/10/26 05:50:20;;;;;;;22.73;14.73;;;9.90;99.90;;;;;;4961740;28;20116;-83
2022/10/26 05:52:49;;;;;;;24.80;14.55;;;9.90;99.90;;;;;;4994692;28;20041;-83
2022/10/26 05:55:16;;;;;;;25.27;14.45;;;9.90;99.90;;;;;;4994135;28;20042;-83
2022/10/26 05:57:43;;;;;;;24.13;14.63;;;9.90;99.90;;;;;;4994378;28;20487;-83
2022/10/26 06:00:15;;;;;;;23.13;13.90;;;10.00;99.90;;;;;;4992076;28;20513;-83
2022/10/26 06:03:05;;;;;;;23.77;14.75;;;10.00;99.90;;;;;;5011059;28;20046;-83
2022/10/26 06:06:00;;;;;;;24.63;13.23;;;10.00;99.90;;;;;;4994082;28;20042;-83
2022/10/26 06:08:27;;;;;;;24.02;12.57;;;10.00;99.90;;;;;;5005328;28;20046;-83
2022/10/26 06:10:58;;;;;;;21.98;12.48;;;10.00;99.90;;;;;;5009189;28;20041;-83
2022/10/26 06:13:24;;;;;;;22.38;12.82;;;10.00;99.90;;;;;;4991316;28;20034;-83
2022/10/26 06:15:57;;;;;;;24.42;13.18;;;10.10;99.90;;;;;;4981546;28;20041;-86
2022/10/26 06:18:44;;;;;;;21.73;12.73;;;10.10;99.90;;;;;;4994408;28;20041;-84
2022/10/26 06:21:42;;;;;;;20.92;13.10;;;10.10;99.90;;;;;;4982883;28;20592;-84
2022/10/26 06:24:27;;;;;;;21.55;12.43;;;10.10;99.90;;;;;;5004195;28;20056;-82
2022/10/26 06:27:16;;;;;;;21.73;13.13;;;10.10;99.90;;;;;;5003228;28;20487;-83
2022/10/26 06:30:06;;;;;;;23.83;12.52;;;10.10;99.90;;;;;;5008145;28;20068;-84
2022/10/26 06:32:32;;;;;;;21.58;12.73;;;10.10;99.90;;;;;;5008362;28;20058;-83
2022/10/26 06:35:19;;;;;;;21.85;12.77;;;10.20;99.90;;;;;;5008209;28;20128;-85
2022/10/26 06:37:45;;;;;;;23.30;11.43;;;10.10;99.90;;;;;;4986446;28;20398;-85
2022/10/26 06:40:16;;;;;;;25.83;12.93;;;10.10;99.90;;;;;;4976559;28;20041;-84
2022/10/26 06:42:42;;;;;;;23.63;12.50;;;10.20;99.90;;;;;;5009053;28;20077;-84
2022/10/26 06:45:13;;;;;;;22.60;12.32;;;10.20;99.90;;;;;;4990939;28;20038;-84
2022/10/26 06:47:47;;;;;;;23.52;12.40;;;10.20;99.90;;;;;;4986396;28;20034;-83
2022/10/26 06:50:25;;;;;;;25.77;13.45;;;10.20;99.90;;;;;;5006289;28;20041;-84
2022/10/26 06:53:25;;;;;;;22.17;12.43;;;10.30;99.90;;;;;;5009028;28;20042;-85
2022/10/26 06:55:51;;;;;;;21.17;11.45;;;10.30;99.90;;;;;;4999184;28;20049;-85
2022/10/26 06:58:23;;;;;;;20.50;11.52;;;10.30;99.90;;;;;;4993478;28;20099;-86
2022/10/26 07:00:52;;;;;;;22.52;12.15;;;10.30;99.90;;;;;;4990561;28;20034;-85
2022/10/26 07:03:17;;;;;;;19.45;11.63;;;10.40;99.90;;;;;;4991407;28;20129;-84
2022/10/26 07:05:44;;;;;;;19.95;11.27;;;10.40;99.90;;;;;;4993328;28;20559;-86
2022/10/26 07:08:10;;;;;;;20.40;11.30;;;10.60;99.90;;;;;;4993274;28;20038;-85
2022/10/26 07:10:37;;;;;;;18.38;10.70;;;10.50;99.90;;;;;;5008460;28;20041;-86
2022/10/26 07:13:11;;;;;;;18.10;10.77;;;10.50;99.90;;;;;;4975958;28;20034;-85
2022/10/26 07:15:38;;;;;;;16.98;10.70;;;10.50;99.90;;;;;;4964215;28;20696;-85
2022/10/26 07:18:05;;;;;;;21.10;10.93;;;10.60;99.90;;;;;;4992446;28;20065;-86
2022/10/26 07:20:38;;;;;;;18.02;10.25;;;10.60;99.90;;;;;;4992800;28;20525;-85
2022/10/26 07:23:05;;;;;;;;;;;10.60;99.90;;;;;;4992261;28;20038;-85
2022/10/26 07:25:32;;;;;;;16.65;9.52;;;11.10;99.90;;;;;;4993013;28;19925;-85
2022/10/26 07:27:59;;;;;;;17.40;9.18;;;10.70;99.90;;;;;;4971916;28;20054;-85
2022/10/26 07:30:29;;;;;;;17.85;10.02;;;10.70;99.90;;;;;;4976722;28;20097;-84
2022/10/26 07:33:09;;;;;;;17.95;10.05;;;10.80;99.90;;;;;;4984940;28;20136;-84
2022/10/26 07:35:35;;;;;;;17.23;10.18;;;10.80;99.90;;;;;;4991118;28;20103;-84
2022/10/26 07:38:01;;;;;;;18.40;10.10;;;12.30;99.90;;;;;;4991867;28;20532;-84
2022/10/26 07:40:27;;;;;;;17.13;9.38;;;10.90;99.90;;;;;;4989346;28;20042;-84
2022/10/26 07:42:56;;;;;;;17.67;10.07;;;10.90;99.90;;;;;;4972909;28;20377;-84
2022/10/26 07:45:22;;;;;;;17.45;10.00;;;10.90;99.90;;;;;;4990928;28;20045;-84
2022/10/26 07:47:48;;;;;;;16.10;9.48;;;11.00;99.90;;;;;;5008733;28;20056;-83
2022/10/26 07:50:14;;;;;;;16.88;8.60;;;11.10;99.90;;;;;;4988992;28;20121;-84
2022/10/26 07:52:40;;;;;;;18.13;9.23;;;11.10;99.90;;;;;;4991751;28;20117;-83
2022/10/26 07:55:08;;;;;;;18.00;9.40;;;11.10;99.90;;;;;;4970042;28;20120;-83
2022/10/26 07:57:34;;;;;;;18.13;9.55;;;11.20;99.90;;;;;;5011306;28;20041;-83
2022/10/26 08:00:00;;;;;;;15.48;9.27;;;11.30;99.90;;;;;;4977594;28;20048;-83
2022/10/26 08:02:26;;;;;;;16.13;9.18;;;11.30;99.90;;;;;;4972444;28;20128;-83
2022/10/26 08:04:51;;;;;;;15.75;8.43;;;11.40;99.90;;;;;;4972861;28;20038;-85
2022/10/26 08:07:19;;;;;;;17.33;9.02;;;11.40;99.90;;;;;;4957163;28;20046;-84
2022/10/26 08:09:44;;;;;;;16.05;8.57;;;11.50;99.90;;;;;;4976476;28;20096;-84
2022/10/26 08:12:12;;;;;;;17.13;9.50;;;11.50;99.90;;;;;;4975478;28;20069;-84
2022/10/26 08:14:38;;;;;;;15.38;9.00;;;11.60;99.90;;;;;;4974690;28;20120;-84
2022/10/26 08:17:03;;;;;;;16.52;9.35;;;11.70;99.90;;;;;;4968838;28;20506;-83
2022/10/26 08:19:29;;;;;;;16.15;8.45;;;11.90;99.90;;;;;;4966472;28;20041;-84
2022/10/26 08:21:56;;;;;;;16.23;8.55;;;11.80;99.90;;;;;;4986883;28;20113;-83
2022/10/26 08:24:21;;;;;;;15.07;7.95;;;11.90;99.90;;;;;;4990695;28;20038;-84
2022/10/26 08:26:47;;;;;;;16.70;8.30;;;12.20;99.90;;;;;;4989371;28;20377;-84
2022/10/26 08:29:13;;;;;;;18.95;8.32;;;12.00;99.90;;;;;;5005020;28;20100;-84
2022/10/26 08:31:38;;;;;;;13.57;7.38;;;12.10;99.90;;;;;;4965063;28;20030;-84
2022/10/26 08:34:04;;;;;;;18.77;8.30;;;12.20;99.90;;;;;;4977527;28;20046;-83
2022/10/26 08:36:30;;;;;;;13.00;7.40;;;12.30;99.90;;;;;;4988377;28;20454;-84
2022/10/26 08:38:56;;;;;;;13.15;6.93;;;12.40;99.90;;;;;;4987572;28;20041;-83
2022/10/26 08:41:36;;;;;;;13.75;6.78;;;12.40;99.90;;;;;;4977418;28;20034;-84
2022/10/26 08:44:25;;;;;;;13.52;6.90;;;12.60;99.90;;;;;;5019242;28;20038;-83
2022/10/26 08:46:57;;;;;;;14.35;6.32;;;12.70;99.90;;;;;;4998105;28;20045;-84
2022/10/26 08:49:31;;;;;;;13.15;7.10;;;12.90;99.90;;;;;;5007731;28;20045;-84
2022/10/26 08:52:00;;;;;;;12.63;6.20;;;13.10;99.90;;;;;;4998599;28;20057;-84
2022/10/26 08:54:39;;;;;;;14.45;6.50;;;13.20;99.90;;;;;;4989961;28;20365;-84
2022/10/26 08:57:21;;;;;;;15.68;5.45;;;13.40;99.90;;;;;;5008637;28;20139;-84
2022/10/26 09:00:32;;;;;;;14.52;5.20;;;13.50;99.90;;;;;;4995508;28;20169;-83
2022/10/26 09:03:00;;;;;;;12.77;5.00;;;13.60;99.90;;;;;;4988513;28;20542;-84
2022/10/26 09:05:42;;;;;;;10.80;5.03;;;13.80;99.90;;;;;;4971785;28;20561;-84
2022/10/26 09:08:19;;;;;;;10.65;4.82;;;13.90;99.90;;;;;;4982754;28;20076;-85
2022/10/26 09:11:19;;;;;;;11.70;4.63;;;13.90;99.90;;;;;;4994538;28;20376;-84
2022/10/26 09:14:12;;;;;;;10.18;4.50;;;14.00;99.90;;;;;;4987492;28;20073;-83
2022/10/26 09:16:58;;;;;;;11.70;4.93;;;14.10;99.90;;;;;;4993470;28;20566;-83
2022/10/26 09:19:58;;;;;;;10.63;4.70;;;14.10;99.90;;;;;;4995494;28;20124;-83
2022/10/26 09:22:37;;;;;;;11.90;4.72;;;14.20;99.90;;;;;;5010746;28;20073;-84
2022/10/26 09:25:17;;;;;;;12.40;4.82;;;14.30;99.90;;;;;;5010435;28;20049;-84
2022/10/26 09:27:49;;;;;;;10.88;4.50;;;14.40;99.90;;;;;;4992879;28;20133;-83
2022/10/26 09:30:19;;;;;;;11.35;4.57;;;14.40;99.90;;;;;;4993826;28;20040;-84
2022/10/26 09:32:48;;;;;;;9.82;3.83;;;14.40;99.90;;;;;;4989702;28;20068;-83
2022/10/26 09:35:24;;;;;;;10.38;4.22;;;14.50;99.90;;;;;;5009271;28;20038;-84
2022/10/26 09:38:08;;;;;;;13.48;4.53;;;14.60;99.90;;;;;;4983217;28;20034;-84
2022/10/26 09:40:46;;;;;;;10.32;4.15;;;14.60;99.90;;;;;;4988971;28;20038;-83
2022/10/26 09:43:25;;;;;;;11.88;3.92;;;14.70;99.90;;;;;;4992471;28;20487;-83
2022/10/26 09:45:52;;;;;;;8.85;3.92;;;14.80;99.90;;;;;;4991780;28;20073;-82
2022/10/26 09:48:29;;;;;;;8.80;3.67;;;14.90;99.90;;;;;;4992767;28;20107;-83
2022/10/26 09:50:56;;;;;;;15.75;4.25;;;14.80;99.90;;;;;;4994239;28;20040;-84
2022/10/26 09:53:22;;;;;;;11.48;4.10;;;14.90;99.90;;;;;;4971084;28;20035;-84
2022/10/26 09:55:53;;;;;;;10.38;4.03;;;15.50;99.90;;;;;;4976826;28;20506;-85
2022/10/26 09:58:34;;;;;;;10.65;4.15;;;15.10;99.90;;;;;;4994209;28;20064;-83
2022/10/26 10:01:00;;;;;;;10.77;4.22;;;15.20;99.90;;;;;;4982995;28;20037;-84
2022/10/26 10:03:28;;;;;;;13.20;4.38;;;15.20;99.90;;;;;;4988989;28;20042;-84
2022/10/26 10:06:14;;;;;;;12.98;4.18;;;15.20;99.90;;;;;;4987125;28;20043;-83
2022/10/26 10:08:40;;;;;;;11.35;3.85;;;15.30;99.90;;;;;;4990937;28;20038;-83
2022/10/26 10:11:10;;;;;;;9.82;3.53;;;15.30;99.90;;;;;;4981512;28;20073;-84
2022/10/26 10:13:44;;;;;;;10.65;3.75;;;15.40;99.90;;;;;;5007531;28;20092;-84
2022/10/26 10:16:12;;;;;;;9.52;3.35;;;15.50;99.90;;;;;;5008210;28;20041;-84
2022/10/26 10:18:40;;;;;;;9.93;3.40;;;15.50;99.90;;;;;;4992895;28;20056;-84
2022/10/26 10:21:06;;;;;;;10.05;3.35;;;15.60;99.90;;;;;;5010963;28;20046;-84
2022/10/26 10:23:35;;;;;;;10.00;3.05;;;15.70;99.90;;;;;;4993532;28;20045;-84
2022/10/26 10:26:09;;;;;;;10.35;3.42;;;15.80;99.90;;;;;;5013273;28;20033;-83
2022/10/26 10:28:36;;;;;;;8.13;3.15;;;15.80;99.90;;;;;;4984744;28;20046;-83
2022/10/26 10:31:19;;;;;;;9.00;2.92;;;15.90;99.90;;;;;;4991308;28;20391;-84
2022/10/26 10:33:45;;;;;;;10.80;2.72;;;16.00;99.90;;;;;;4991428;28;20116;-83
2022/10/26 10:36:17;;;;;;;9.48;2.95;;;16.00;99.90;;;;;;4988164;28;20533;-85
2022/10/26 10:38:45;;;;;;;9.93;2.97;;;16.10;99.90;;;;;;5009439;28;20506;-85
2022/10/26 10:41:17;;;;;;;8.18;2.85;;;16.10;99.90;;;;;;4973903;28;20041;-83
2022/10/26 10:43:49;;;;;;;7.32;2.63;;;16.10;99.90;;;;;;4991199;28;20125;-83
2022/10/26 10:46:20;;;;;;;10.02;2.78;;;16.10;99.90;;;;;;4999460;28;20108;-84
2022/10/26 10:48:49;;;;;;;12.10;2.97;;;16.10;99.90;;;;;;4986819;28;20065;-83
2022/10/26 10:51:21;;;;;;;10.60;2.90;;;16.10;99.90;;;;;;4995648;28;20036;-84
2022/10/26 10:53:50;;;;;;;8.63;2.72;;;16.20;99.90;;;;;;5001080;28;20052;-84
2022/10/26 10:56:34;;;;;;;10.48;2.70;;;16.20;99.90;;;;;;4991954;28;20042;-83
2022/10/26 10:59:24;;;;;;;8.20;2.50;;;16.20;99.90;;;;;;4990607;28;20046;-84
2022/10/26 11:01:53;;;;;;;8.20;2.60;;;16.20;99.90;;;;;;4988680;28;20033;-84
2022/10/26 11:04:57;;;;;;;9.18;2.80;;;16.20;99.90;;;;;;5008607;28;20297;-84
2022/10/26 11:07:24;;;;;;;9.68;2.60;;;16.20;99.90;;;;;;4979596;28;20072;-84
2022/10/26 11:09:53;;;;;;;7.50;2.58;;;16.20;99.90;;;;;;4974367;28;20523;-83
2022/10/26 11:12:50;;;;;;;7.38;2.70;;;16.30;99.90;;;;;;4973771;28;20042;-84
2022/10/26 11:15:21;;;;;;;10.70;2.50;;;16.40;99.90;;;;;;4959190;28;20419;-84
2022/10/26 11:18:13;;;;;;;7.60;2.38;;;16.50;99.90;;;;;;5006570;28;20042;-82
2022/10/26 11:20:48;;;;;;;9.48;2.70;;;16.50;99.90;;;;;;4982203;28;20133;-84
2022/10/26 11:23:24;;;;;;;7.15;2.63;;;16.60;99.90;;;;;;4992188;28;20072;-83
2022/10/26 11:25:58;;;;;;;7.35;2.28;;;16.70;99.90;;;;;;4993091;28;20438;-83
2022/10/26 11:28:40;;;;;;;6.68;2.30;;;16.70;99.90;;;;;;4979165;28;20474;-83
2022/10/26 11:31:15;;;;;;;10.17;3.13;;;16.80;99.90;;;;;;4987894;28;20042;-83
2022/10/26 11:33:51;;;;;;;10.02;2.70;;;16.80;99.90;;;;;;5009453;28;20296;-84
2022/10/26 11:36:21;;;;;;;9.05;2.90;;;16.90;99.90;;;;;;5006375;28;20041;-84
2022/10/26 11:39:15;;;;;;;7.95;2.78;;;17.00;99.90;;;;;;4989524;28;20038;-83
2022/10/26 11:42:22;;;;;;;9.10;2.90;;;17.10;99.90;;;;;;4982815;28;20038;-83
2022/10/26 11:44:58;;;;;;;7.63;2.63;;;17.10;99.90;;;;;;4978095;28;20128;-84
2022/10/26 11:47:37;;;;;;;9.88;2.70;;;17.20;99.90;;;;;;5009122;28;20082;-83
2022/10/26 11:50:16;;;;;;;8.88;3.03;;;17.20;99.90;;;;;;5004230;28;20096;-84
2022/10/26 11:52:46;;;;;;;8.95;2.70;;;17.30;99.90;;;;;;4992861;28;20482;-84
2022/10/26 11:55:12;;;;;;;8.30;2.90;;;17.30;99.90;;;;;;4992565;28;20042;-83
2022/10/26 11:57:39;;;;;;;10.50;2.83;;;17.40;99.90;;;;;;4975540;28;20167;-84
2022/10/26 12:00:13;;;;;;;8.02;2.50;;;17.40;99.90;;;;;;4977194;28;20613;-84
2022/10/26 12:02:54;;;;;;;8.57;2.80;;;17.50;99.90;;;;;;5001300;28;20045;-85
2022/10/26 12:05:26;;;;;;;10.15;2.63;;;17.70;99.90;;;;;;4992098;28;20056;-84
2022/10/26 12:07:59;;;;;;;8.60;2.63;;;17.70;99.90;;;;;;4984432;28;20037;-83
2022/10/26 12:10:29;;;;;;;8.65;2.60;;;17.80;99.90;;;;;;4989051;28;20094;-83
2022/10/26 12:13:26;;;;;;;9.35;2.50;;;17.90;99.90;;;;;;5007050;28;20041;-84
2022/10/26 12:16:03;;;;;;;10.70;3.30;;;18.00;99.90;;;;;;5004616;28;20541;-83
2022/10/26 12:18:41;;;;;;;9.60;3.00;;;18.00;99.90;;;;;;4987604;28;20037;-83
2022/10/26 12:21:09;;;;;;;8.55;3.00;;;18.10;99.90;;;;;;4984409;28;20128;-84
2022/10/26 12:23:53;;;;;;;9.30;3.05;;;18.10;99.90;;;;;;4990133;28;20431;-83
2022/10/26 12:26:22;;;;;;;10.63;3.60;;;18.20;99.90;;;;;;4995138;28;20053;-83
2022/10/26 12:29:08;;;;;;;11.13;3.13;;;18.20;99.90;;;;;;4990865;28;20074;-84
2022/10/26 12:31:37;;;;;;;10.68;3.05;;;18.10;99.90;;;;;;4977270;28;20054;-85
2022/10/26 12:34:02;;;;;;;9.77;2.85;;;18.00;99.90;;;;;;4997121;28;20124;-84
2022/10/26 12:36:56;;;;;;;9.13;2.80;;;18.00;99.90;;;;;;4994782;28;20045;-84
2022/10/26 12:39:35;;;;;;;10.73;3.22;;;18.00;99.90;;;;;;4993338;28;20046;-83
2022/10/26 12:42:03;;;;;;;10.10;2.92;;;18.10;99.90;;;;;;4993709;28;20046;-85
2022/10/26 12:44:32;;;;;;;10.25;3.17;;;18.10;99.90;;;;;;4995237;28;20458;-84
2022/10/26 12:46:58;;;;;;;10.27;3.17;;;18.20;99.90;;;;;;5011809;28;20495;-84
2022/10/26 12:49:58;;;;;;;7.32;2.22;;;18.20;99.90;;;;;;4974029;28;20050;-85
2022/10/26 12:52:53;;;;;;;9.30;2.80;;;18.30;99.90;;;;;;4990967;28;20402;-83
2022/10/26 12:55:37;;;;;;;9.10;2.90;;;18.30;99.90;;;;;;4989930;28;20052;-83
2022/10/26 12:58:11;;;;;;;9.68;2.53;;;18.20;99.90;;;;;;4995153;28;20124;-85
2022/10/26 13:00:44;;;;;;;12.60;3.30;;;18.30;99.90;;;;;;4995770;28;20144;-84